createdAt,value
2022-12-22T00:02:44.849Z,101268.59
2022-12-22T00:05:39.819Z,101270.75
2022-12-22T00:08:27.309Z,101264.00
2022-12-22T00:11:14.865Z,101251.31
2022-12-22T00:14:03.741Z,101257.50
2022-12-22T00:16:52.263Z,101243.19
2022-12-22T00:19:38.387Z,101255.09
2022-12-22T00:22:44.656Z,101260.19
2022-12-22T00:25:39.843Z,101248.06
2022-12-22T00:28:33.513Z,101247.47
2022-12-22T00:31:22.516Z,101243.47
2022-12-22T00:34:08.208Z,101244.25
2022-12-22T00:36:54.085Z,101247.50
2022-12-22T00:39:40.457Z,101245.91
2022-12-22T00:42:27.094Z,101235.38
2022-12-22T00:45:12.886Z,101229.41
2022-12-22T00:48:00.424Z,101228.28
2022-12-22T00:50:54.958Z,101215.84
2022-12-22T00:53:41.260Z,101225.00
2022-12-22T00:56:27.937Z,101216.63
2022-12-22T00:59:16.657Z,101219.09
2022-12-22T01:02:02.999Z,101215.53
2022-12-22T01:04:49.377Z,101216.38
2022-12-22T01:07:45.063Z,101218.53
2022-12-22T01:10:32.889Z,101217.19
2022-12-22T01:13:19.387Z,101224.50
2022-12-22T01:16:05.467Z,101221.78
2022-12-22T01:18:51.530Z,101210.72
2022-12-22T01:21:39.126Z,101216.41
2022-12-22T01:24:33.147Z,101220.47
2022-12-22T01:27:19.079Z,101207.53
2022-12-22T01:30:05.017Z,101210.75
2022-12-22T01:32:53.516Z,101209.41
2022-12-22T01:35:43.445Z,101212.09
2022-12-22T01:38:29.474Z,101212.63
2022-12-22T01:41:17.748Z,101214.78
2022-12-22T01:44:03.658Z,101212.66
2022-12-22T01:46:55.806Z,101218.06
2022-12-22T01:49:44.795Z,101211.03
2022-12-22T01:52:34.348Z,101209.41
2022-12-22T01:55:26.519Z,101206.44
2022-12-22T01:58:12.359Z,101190.47
2022-12-22T02:01:02.263Z,101192.63
2022-12-22T02:03:48.294Z,101193.41
2022-12-22T02:07:01.938Z,101211.56
2022-12-22T02:10:07.307Z,101218.28
2022-12-22T02:13:16.019Z,101212.34
2022-12-22T02:16:28.502Z,101204.75
2022-12-22T02:19:25.621Z,101210.34
2022-12-22T02:22:31.348Z,101209.53
2022-12-22T02:25:24.714Z,101212.56
2022-12-22T02:28:14.300Z,101209.28
2022-12-22T02:31:01.227Z,101199.34
2022-12-22T02:33:47.235Z,101190.34
2022-12-22T02:36:45.128Z,101187.97
2022-12-22T02:39:48.682Z,101196.38
2022-12-22T02:42:47.728Z,101192.56
2022-12-22T02:45:45.508Z,101188.56
2022-12-22T02:48:55.917Z,101189.06
2022-12-22T02:51:45.939Z,101190.94
2022-12-22T02:54:36.998Z,101186.59
2022-12-22T02:57:25.454Z,101185.56
2022-12-22T03:00:11.085Z,101182.84
2022-12-22T03:02:57.260Z,101184.97
2022-12-22T03:05:46.484Z,101175.00
2022-12-22T03:08:32.289Z,101182.00
2022-12-22T03:11:18.393Z,101182.06
2022-12-22T03:14:04.303Z,101188.78
2022-12-22T03:16:50.900Z,101184.25
2022-12-22T03:19:36.722Z,101171.03
2022-12-22T03:22:22.727Z,101169.16
2022-12-22T03:25:08.784Z,101173.97
2022-12-22T03:27:36.209Z,101162.91
2022-12-22T03:30:04.389Z,101165.09
2022-12-22T03:32:31.845Z,101143.78
2022-12-22T03:34:59.278Z,101162.13
2022-12-22T03:37:26.717Z,101145.94
2022-12-22T03:39:54.163Z,101137.56
2022-12-22T03:42:40.070Z,101147.81
2022-12-22T03:45:44.422Z,101133.53
2022-12-22T03:48:12.239Z,101144.00
2022-12-22T03:50:39.609Z,101122.94
2022-12-22T03:53:07.017Z,101131.00
2022-12-22T03:55:34.414Z,101125.34
2022-12-22T03:58:01.936Z,101135.06
2022-12-22T04:00:29.300Z,101128.28
2022-12-22T04:02:58.929Z,101125.03
2022-12-22T04:05:27.212Z,101125.53
2022-12-22T04:07:54.639Z,101123.88
2022-12-22T04:10:40.420Z,101127.72
2022-12-22T04:13:07.766Z,101135.81
2022-12-22T04:15:35.154Z,101133.84
2022-12-22T04:18:02.541Z,101121.44
2022-12-22T04:20:29.926Z,101133.28
2022-12-22T04:22:57.790Z,101135.78
2022-12-22T04:25:25.883Z,101125.69
2022-12-22T04:27:53.297Z,101121.69
2022-12-22T04:30:20.678Z,101121.28
2022-12-22T04:32:48.031Z,101133.72
2022-12-22T04:35:15.390Z,101119.72
2022-12-22T04:37:42.807Z,101122.34
2022-12-22T04:40:10.400Z,101121.78
2022-12-22T04:42:37.894Z,101129.56
2022-12-22T04:45:05.877Z,101120.88
2022-12-22T04:47:33.192Z,101122.81
2022-12-22T04:50:00.542Z,101133.13
2022-12-22T04:52:30.035Z,101131.97
2022-12-22T04:54:57.381Z,101137.69
2022-12-22T04:57:24.780Z,101126.34
2022-12-22T04:59:52.120Z,101121.50
2022-12-22T05:02:19.601Z,101119.84
2022-12-22T05:04:47.077Z,101121.00
2022-12-22T05:07:14.411Z,101127.38
2022-12-22T05:09:41.762Z,101141.41
2022-12-22T05:12:27.608Z,101136.88
2022-12-22T05:14:54.957Z,101132.28
2022-12-22T05:17:22.360Z,101124.41
2022-12-22T05:19:49.693Z,101126.31
2022-12-22T05:22:17.091Z,101137.13
2022-12-22T05:24:44.437Z,101132.78
2022-12-22T05:27:12.579Z,101133.13
2022-12-22T05:29:39.870Z,101135.31
2022-12-22T05:32:07.193Z,101144.47
2022-12-22T05:34:34.495Z,101143.44
2022-12-22T05:37:01.871Z,101136.94
2022-12-22T05:39:29.264Z,101147.22
2022-12-22T05:41:56.553Z,101162.41
2022-12-22T05:44:24.077Z,101146.63
2022-12-22T05:46:52.405Z,101137.09
2022-12-22T05:49:20.676Z,101146.13
2022-12-22T05:51:48.587Z,101133.38
2022-12-22T05:54:15.966Z,101146.59
2022-12-22T05:56:43.343Z,101157.91
2022-12-22T05:59:11.236Z,101153.41
2022-12-22T06:01:38.651Z,101134.19
2022-12-22T06:04:08.911Z,101115.25
2022-12-22T06:06:36.365Z,101115.25
2022-12-22T06:09:03.786Z,101118.75
2022-12-22T06:11:31.186Z,101114.16
2022-12-22T06:13:58.513Z,101118.81
2022-12-22T06:16:25.913Z,101123.94
2022-12-22T06:18:53.402Z,101129.09
2022-12-22T06:21:20.695Z,101123.69
2022-12-22T06:23:48.392Z,101126.91
2022-12-22T06:26:15.796Z,101120.88
2022-12-22T06:28:43.560Z,101128.69
2022-12-22T06:31:11.089Z,101127.03
2022-12-22T06:33:38.573Z,101126.78
2022-12-22T06:36:09.407Z,101123.84
2022-12-22T06:38:36.713Z,101121.94
2022-12-22T06:41:04.197Z,101117.38
2022-12-22T06:43:31.583Z,101110.31
2022-12-22T06:45:59.656Z,101120.28
2022-12-22T06:48:28.287Z,101122.16
2022-12-22T06:50:59.757Z,101117.06
2022-12-22T06:53:27.290Z,101113.78
2022-12-22T06:55:57.558Z,101119.84
2022-12-22T06:58:24.990Z,101116.06
2022-12-22T07:00:56.175Z,101118.22
2022-12-22T07:03:23.717Z,101120.38
2022-12-22T07:05:51.229Z,101126.84
2022-12-22T07:08:18.629Z,101120.34
2022-12-22T07:11:00.766Z,101126.84
2022-12-22T07:13:34.164Z,101126.03
2022-12-22T07:16:03.654Z,101125.78
2022-12-22T07:18:35.090Z,101132.78
2022-12-22T07:21:05.223Z,101131.41
2022-12-22T07:23:32.936Z,101133.00
2022-12-22T07:26:01.276Z,101137.63
2022-12-22T07:28:46.893Z,101140.84
2022-12-22T07:31:32.742Z,101156.84
2022-12-22T07:34:18.740Z,101152.50
2022-12-22T07:37:05.092Z,101167.63
2022-12-22T07:39:32.436Z,101165.00
2022-12-22T07:42:18.209Z,101169.56
2022-12-22T07:45:04.358Z,101164.66
2022-12-22T07:47:35.187Z,101163.31
2022-12-22T07:50:32.432Z,101171.34
2022-12-22T07:53:18.391Z,101184.63
2022-12-22T07:55:45.740Z,101174.03
2022-12-22T07:58:31.726Z,101165.63
2022-12-22T08:01:00.384Z,101166.13
2022-12-22T08:03:46.524Z,101171.50
2022-12-22T08:06:34.213Z,101180.16
2022-12-22T08:09:02.510Z,101181.84
2022-12-22T08:11:49.352Z,101182.09
2022-12-22T08:14:35.411Z,101169.41
2022-12-22T08:17:21.145Z,101168.00
2022-12-22T08:19:48.876Z,101171.78
2022-12-22T08:22:16.269Z,101180.41
2022-12-22T08:25:02.321Z,101184.34
2022-12-22T08:27:54.905Z,101187.50
2022-12-22T08:30:22.345Z,101181.59
2022-12-22T08:33:08.628Z,101178.63
2022-12-22T08:35:59.801Z,101177.88
2022-12-22T08:38:31.021Z,101186.00
2022-12-22T08:41:37.802Z,101182.78
2022-12-22T08:44:05.239Z,101180.06
2022-12-22T08:46:52.227Z,101185.47
2022-12-22T08:49:20.627Z,101177.13
2022-12-22T08:51:48.560Z,101172.56
2022-12-22T08:54:16.721Z,101170.34
2022-12-22T08:56:44.647Z,101160.19
2022-12-22T08:59:12.491Z,101152.59
2022-12-22T09:01:44.364Z,101160.75
2022-12-22T09:04:13.961Z,101162.59
2022-12-22T09:06:45.516Z,101165.56
2022-12-22T09:09:14.517Z,101157.72
2022-12-22T09:11:43.409Z,101150.63
2022-12-22T09:14:12.512Z,101154.06
2022-12-22T09:16:40.477Z,101156.50
2022-12-22T09:19:08.646Z,101153.72
2022-12-22T09:21:36.545Z,101148.94
2022-12-22T09:24:07.798Z,101156.50
2022-12-22T09:26:35.425Z,101156.34
2022-12-22T09:29:03.108Z,101154.44
2022-12-22T09:31:30.531Z,101150.69
2022-12-22T09:33:58.691Z,101154.75
2022-12-22T09:36:29.938Z,101141.16
2022-12-22T09:38:57.602Z,101142.78
2022-12-22T09:41:35.925Z,101144.00
2022-12-22T09:44:14.005Z,101146.38
2022-12-22T09:46:41.757Z,101139.63
2022-12-22T09:49:14.771Z,101133.34
2022-12-22T09:51:46.673Z,101128.03
2022-12-22T09:54:14.263Z,101123.13
2022-12-22T09:56:41.946Z,101118.81
2022-12-22T09:59:15.232Z,101112.84
2022-12-22T10:01:56.659Z,101128.59
2022-12-22T10:04:27.182Z,101121.22
2022-12-22T10:07:09.949Z,101118.06
2022-12-22T10:09:52.903Z,101119.47
2022-12-22T10:12:25.859Z,101124.38
2022-12-22T10:14:54.609Z,101121.22
2022-12-22T10:17:32.561Z,101135.66
2022-12-22T10:20:25.542Z,101123.66
2022-12-22T10:22:52.990Z,101119.75
2022-12-22T10:26:17.333Z,101101.53
2022-12-22T10:28:33.516Z,101103.78
2022-12-22T10:31:18.350Z,101093.72
2022-12-22T10:33:49.055Z,101097.72
2022-12-22T10:36:41.354Z,101090.94
2022-12-22T10:39:10.630Z,101091.38
2022-12-22T10:41:50.157Z,101096.34
2022-12-22T10:44:17.421Z,101097.38
2022-12-22T10:46:57.483Z,101091.28
2022-12-22T10:49:28.622Z,101089.75
2022-12-22T10:52:18.432Z,101085.38
2022-12-22T10:54:47.786Z,101090.66
2022-12-22T10:57:15.177Z,101094.09
2022-12-22T10:59:59.401Z,101091.81
2022-12-22T11:02:34.615Z,101100.06
2022-12-22T11:05:12.650Z,101094.00
2022-12-22T11:07:45.423Z,101088.31
2022-12-22T11:10:18.541Z,101088.56
2022-12-22T11:13:12.130Z,101102.78
2022-12-22T11:15:42.379Z,101088.88
2022-12-22T11:18:45.745Z,101096.25
2022-12-22T11:21:26.262Z,101094.97
2022-12-22T11:24:12.538Z,101098.75
2022-12-22T11:26:54.731Z,101088.88
2022-12-22T11:29:59.666Z,101093.50
2022-12-22T11:32:44.420Z,101093.78
2022-12-22T11:35:35.437Z,101088.59
2022-12-22T11:38:18.048Z,101092.16
2022-12-22T11:40:51.295Z,101087.84
2022-12-22T11:43:52.434Z,101092.47
2022-12-22T11:46:53.812Z,101080.53
2022-12-22T11:50:00.223Z,101068.28
2022-12-22T11:52:48.001Z,101060.28
2022-12-22T11:55:40.495Z,101072.44
2022-12-22T11:58:19.180Z,101047.41
2022-12-22T12:01:15.409Z,101040.38
2022-12-22T12:03:58.110Z,101037.16
2022-12-22T12:06:39.983Z,101031.72
2022-12-22T12:09:26.799Z,101028.13
2022-12-22T12:12:11.058Z,101022.28
2022-12-22T12:14:45.853Z,101025.59
2022-12-22T12:17:51.592Z,100995.75
2022-12-22T12:20:46.040Z,101003.06
2022-12-22T12:23:44.893Z,101003.78
2022-12-22T12:26:22.703Z,101012.03
2022-12-22T12:29:16.801Z,100996.28
2022-12-22T12:32:13.528Z,100992.66
2022-12-22T12:34:47.464Z,100978.41
2022-12-22T12:37:26.387Z,100984.06
2022-12-22T12:40:05.085Z,100984.84
2022-12-22T12:42:45.253Z,100980.91
2022-12-22T12:45:36.473Z,100970.88
2022-12-22T12:48:22.201Z,100981.44
2022-12-22T12:50:52.706Z,100978.84
2022-12-22T12:53:21.939Z,100972.38
2022-12-22T12:55:52.232Z,100987.81
2022-12-22T12:58:38.043Z,100980.13
2022-12-22T13:01:08.197Z,100973.59
2022-12-22T13:04:02.273Z,100969.53
2022-12-22T13:06:49.329Z,100955.69
2022-12-22T13:12:33.420Z,100971.53
2022-12-22T13:15:01.906Z,100960.75
2022-12-22T13:17:49.451Z,100969.69
2022-12-22T13:20:40.747Z,100965.53
2022-12-22T13:23:14.727Z,100968.88
2022-12-22T13:25:49.521Z,100976.78
2022-12-22T13:28:20.052Z,100972.59
2022-12-22T13:30:50.237Z,100963.84
2022-12-22T13:33:25.547Z,100971.59
2022-12-22T13:35:58.502Z,100959.44
2022-12-22T13:38:26.362Z,100955.13
2022-12-22T13:40:53.771Z,100961.50
2022-12-22T13:43:21.454Z,100962.16
2022-12-22T13:45:55.845Z,100956.91
2022-12-22T13:48:30.441Z,100955.72
2022-12-22T13:51:00.793Z,100938.72
2022-12-22T13:56:38.268Z,100944.88
2022-12-22T13:59:17.973Z,100939.16
2022-12-22T14:01:50.466Z,100932.59
2022-12-22T14:04:18.025Z,100927.69
2022-12-22T14:06:45.476Z,100937.91
2022-12-22T14:09:19.071Z,100937.63
2022-12-22T14:11:52.124Z,100938.00
2022-12-22T14:14:26.896Z,100942.22
2022-12-22T14:16:57.872Z,100942.66
2022-12-22T14:19:28.573Z,100947.28
2022-12-22T14:22:04.684Z,100948.97
2022-12-22T14:24:42.103Z,100941.06
2022-12-22T14:27:19.294Z,100937.38
2022-12-22T14:29:46.736Z,100940.28
2022-12-22T14:32:42.223Z,100944.38
2022-12-22T14:35:22.117Z,100954.41
2022-12-22T14:38:06.914Z,100969.59
2022-12-22T14:40:40.194Z,100963.53
2022-12-22T14:43:24.575Z,100957.00
2022-12-22T14:46:01.011Z,100967.22
2022-12-22T14:48:32.948Z,100963.63
2022-12-22T14:51:01.328Z,100973.59
2022-12-22T14:53:43.952Z,100977.50
2022-12-22T14:56:19.703Z,100970.47
2022-12-22T14:58:48.750Z,100972.06
2022-12-22T15:01:18.895Z,100973.97
2022-12-22T15:04:16.962Z,100964.34
2022-12-22T15:06:47.872Z,100970.63
2022-12-22T15:09:15.248Z,100967.41
2022-12-22T15:12:07.184Z,100970.09
2022-12-22T15:14:38.906Z,100976.84
2022-12-22T15:17:07.923Z,100980.59
2022-12-22T15:19:36.741Z,100970.47
2022-12-22T15:22:08.092Z,100972.94
2022-12-22T15:24:35.475Z,100971.56
2022-12-22T15:27:02.913Z,100961.00
2022-12-22T15:29:30.894Z,100964.81
2022-12-22T15:31:58.255Z,100961.81
2022-12-22T15:34:28.533Z,100969.75
2022-12-22T15:36:55.916Z,100966.50
2022-12-22T15:39:24.649Z,100968.13
2022-12-22T15:41:52.112Z,100966.50
2022-12-22T15:44:22.590Z,100966.59
2022-12-22T15:46:56.370Z,100975.25
2022-12-22T15:49:27.153Z,100955.75
2022-12-22T15:52:00.908Z,100957.88
2022-12-22T15:54:32.738Z,100946.91
2022-12-22T15:57:01.114Z,100946.53
2022-12-22T15:59:29.650Z,100936.72
2022-12-22T16:02:01.308Z,100938.94
2022-12-22T16:04:30.111Z,100938.94
2022-12-22T16:06:59.625Z,100928.31
2022-12-22T16:09:32.624Z,100919.66
2022-12-22T16:12:00.226Z,100927.28
2022-12-22T16:14:29.258Z,100936.22
2022-12-22T16:16:58.787Z,100931.59
2022-12-22T16:19:26.187Z,100935.41
2022-12-22T16:21:54.160Z,100927.56
2022-12-22T16:24:34.251Z,100934.63
2022-12-22T16:27:02.418Z,100932.25
2022-12-22T16:29:30.349Z,100933.50
2022-12-22T16:32:26.844Z,100938.63
2022-12-22T16:35:00.990Z,100938.94
2022-12-22T16:37:28.374Z,100937.31
2022-12-22T16:39:55.783Z,100938.41
2022-12-22T16:45:18.217Z,100941.78
2022-12-22T16:47:46.460Z,100945.09
2022-12-22T16:50:20.043Z,100947.38
2022-12-22T16:52:48.940Z,100938.03
2022-12-22T16:55:21.142Z,100931.28
2022-12-22T16:57:48.860Z,100920.75
2022-12-22T17:00:36.559Z,100929.59
2022-12-22T17:03:13.374Z,100928.41
2022-12-22T17:05:51.057Z,100929.09
2022-12-22T17:08:34.182Z,100930.50
2022-12-22T17:11:10.087Z,100924.06
2022-12-22T17:13:38.870Z,100925.38
2022-12-22T17:16:06.797Z,100932.47
2022-12-22T17:18:35.432Z,100932.69
2022-12-22T17:21:07.111Z,100936.00
2022-12-22T17:23:44.631Z,100936.63
2022-12-22T17:26:16.400Z,100933.34
2022-12-22T17:28:45.606Z,100942.66
2022-12-22T17:31:21.578Z,100941.31
2022-12-22T17:33:49.566Z,100952.78
2022-12-22T17:36:25.109Z,100946.97
2022-12-22T17:38:52.478Z,100949.13
2022-12-22T17:41:20.193Z,100946.09
2022-12-22T17:43:50.326Z,100955.91
2022-12-22T17:46:19.817Z,100956.56
2022-12-22T17:48:47.996Z,100959.00
2022-12-22T17:51:23.259Z,100963.97
2022-12-22T17:53:51.766Z,100968.16
2022-12-22T17:56:21.446Z,100968.09
2022-12-22T17:58:49.265Z,100968.44
2022-12-22T18:01:24.201Z,100973.34
2022-12-22T18:03:51.774Z,100967.13
2022-12-22T18:06:22.631Z,100965.72
2022-12-22T18:08:52.056Z,100966.03
2022-12-22T18:11:20.168Z,100970.66
2022-12-22T18:13:47.862Z,100975.84
2022-12-22T18:16:18.037Z,100977.66
2022-12-22T18:18:50.739Z,100980.38
2022-12-22T18:21:21.413Z,100983.84
2022-12-22T18:23:52.540Z,100987.41
2022-12-22T18:26:23.576Z,100983.09
2022-12-22T18:28:51.980Z,100983.44
2022-12-22T18:31:20.469Z,100988.63
2022-12-22T18:33:48.213Z,100989.47
2022-12-22T18:36:33.808Z,100995.91
2022-12-22T18:39:02.510Z,100993.09
2022-12-22T18:41:34.744Z,100984.56
2022-12-22T18:44:02.214Z,100998.91
2022-12-22T18:46:30.548Z,100991.44
2022-12-22T18:49:01.920Z,100989.41
2022-12-22T18:51:32.596Z,100992.22
2022-12-22T18:53:59.921Z,100992.53
2022-12-22T18:56:27.328Z,100992.00
2022-12-22T18:58:54.626Z,100992.44
2022-12-22T19:01:26.752Z,101000.50
2022-12-22T19:03:57.386Z,101007.38
2022-12-22T19:06:24.826Z,101007.38
2022-12-22T19:08:52.275Z,101003.00
2022-12-22T19:11:26.241Z,100986.75
2022-12-22T19:13:53.745Z,100993.84
2022-12-22T19:16:25.851Z,100989.75
2022-12-22T19:18:53.357Z,100983.03
2022-12-22T19:21:21.032Z,100990.78
2022-12-22T19:23:48.490Z,100987.63
2022-12-22T19:26:25.360Z,100994.41
2022-12-22T19:28:55.653Z,100994.41
2022-12-22T19:31:26.363Z,100995.00
2022-12-22T19:33:56.024Z,100986.81
2022-12-22T19:36:26.592Z,100992.53
2022-12-22T19:39:03.394Z,100986.59
2022-12-22T19:41:38.724Z,100985.19
2022-12-22T19:44:28.690Z,100985.81
2022-12-22T19:46:59.217Z,100992.28
2022-12-22T19:49:28.137Z,100990.19
2022-12-22T19:51:56.431Z,100982.72
2022-12-22T19:54:24.239Z,100979.34
2022-12-22T19:56:55.122Z,100979.34
2022-12-22T19:59:44.786Z,100980.16
2022-12-22T20:02:23.932Z,100984.47
2022-12-22T20:04:52.024Z,100998.81
2022-12-22T20:07:22.646Z,101001.75
2022-12-22T20:09:50.380Z,100998.00
2022-12-22T20:12:30.625Z,100995.28
2022-12-22T20:14:58.571Z,101001.25
2022-12-22T20:17:28.615Z,100989.88
2022-12-22T20:19:55.954Z,100991.84
2022-12-22T20:22:26.630Z,100987.97
2022-12-22T20:24:54.573Z,100995.34
2022-12-22T20:27:25.694Z,101004.00
2022-12-22T20:29:53.153Z,101000.41
2022-12-22T20:32:27.269Z,100999.03
2022-12-22T20:34:55.810Z,101000.34
2022-12-22T20:37:23.531Z,101004.94
2022-12-22T20:39:50.851Z,101007.88
2022-12-22T20:42:20.265Z,100997.06
2022-12-22T20:45:02.392Z,100997.59
2022-12-22T20:47:35.758Z,101001.38
2022-12-22T20:50:03.967Z,100983.03
2022-12-22T20:52:31.276Z,100980.59
2022-12-22T20:54:58.778Z,100983.91
2022-12-22T20:57:28.824Z,100978.03
2022-12-22T20:59:56.986Z,100988.06
2022-12-22T21:02:28.219Z,100989.75
2022-12-22T21:04:56.545Z,100988.00
2022-12-22T21:07:23.912Z,100990.78
2022-12-22T21:09:54.031Z,100992.31
2022-12-22T21:12:21.364Z,100992.19
2022-12-22T21:14:50.473Z,100990.03
2022-12-22T21:17:21.734Z,100992.69
2022-12-22T21:19:49.805Z,100997.59
2022-12-22T21:22:17.792Z,101010.28
2022-12-22T21:24:48.017Z,101002.25
2022-12-22T21:27:20.028Z,100990.63
2022-12-22T21:29:47.772Z,100986.69
2022-12-22T21:32:15.870Z,100969.03
2022-12-22T21:34:43.299Z,100975.94
2022-12-22T21:37:19.241Z,100984.63
2022-12-22T21:39:46.668Z,100988.94
2022-12-22T21:42:16.334Z,100990.84
2022-12-22T21:44:47.067Z,100979.50
2022-12-22T21:47:17.824Z,100984.25
2022-12-22T21:49:45.228Z,101004.00
2022-12-22T21:52:12.694Z,101004.31
2022-12-22T21:54:40.122Z,100998.66
2022-12-22T21:57:14.761Z,100991.88
2022-12-22T21:59:44.936Z,100990.63
2022-12-22T22:02:17.090Z,100999.84
2022-12-22T22:04:51.800Z,100996.31
2022-12-22T22:07:21.821Z,100989.50
2022-12-22T22:09:49.163Z,100988.13
2022-12-22T22:12:36.426Z,100991.16
2022-12-22T22:15:08.031Z,100989.81
2022-12-22T22:17:35.484Z,100991.72
2022-12-22T22:20:04.193Z,100998.72
2022-12-22T22:22:31.533Z,101007.97
2022-12-22T22:24:58.923Z,101023.63
2022-12-22T22:27:26.347Z,101014.47
2022-12-22T22:29:53.733Z,101009.63
2022-12-22T22:32:21.292Z,101010.16
2022-12-22T22:34:48.703Z,101004.44
2022-12-22T22:37:17.409Z,101009.88
2022-12-22T22:39:44.821Z,101002.03
2022-12-22T22:42:12.132Z,100991.47
2022-12-22T22:44:39.512Z,100974.75
2022-12-22T22:47:06.772Z,100987.41
2022-12-22T22:49:37.078Z,100979.59
2022-12-22T22:52:04.649Z,100988.22
2022-12-22T22:54:32.812Z,100978.47
2022-12-22T22:57:00.363Z,100978.75
2022-12-22T22:59:29.556Z,100974.44
2022-12-22T23:01:56.965Z,100979.59
2022-12-22T23:04:24.427Z,100965.28
2022-12-22T23:06:51.785Z,100969.63
2022-12-22T23:09:19.184Z,100957.09
2022-12-22T23:11:46.496Z,100963.03
2022-12-22T23:14:13.863Z,100977.31
2022-12-22T23:16:41.294Z,100966.56
2022-12-22T23:19:08.673Z,100968.47
2022-12-22T23:21:36.008Z,100951.63
2022-12-22T23:24:03.535Z,100953.16
2022-12-22T23:26:31.225Z,100952.22
2022-12-22T23:29:03.216Z,100952.56
2022-12-22T23:31:32.940Z,100947.75
2022-12-22T23:34:00.854Z,100945.41
2022-12-22T23:36:28.341Z,100933.63
2022-12-22T23:38:55.721Z,100932.97
2022-12-22T23:41:23.150Z,100927.56
2022-12-22T23:43:50.704Z,100936.25
2022-12-22T23:46:18.205Z,100934.16
2022-12-22T23:48:50.745Z,100936.69
2022-12-22T23:51:18.673Z,100938.06
2022-12-22T23:53:46.078Z,100920.84
2022-12-22T23:56:13.501Z,100925.94
2022-12-22T23:58:41.032Z,100931.66
